Casstown, OH

06:13 PM EST on ianuarie 30, 2015 (GMT -0500)
Springfield-Beckley Municipal | Change Station
CLOSE
Current Station
Aeroport
Location: Springfield,
Elevation: 1050 ft
Nearby Weather Stations
Consiliere activă: Winter Storm Watch

Elev 1050 ft 39.84 °N, 83.84 °W | Updated 17 minutes ago

Cer în general noros
Cer în general noros
20 °F
Feels Like 11 °F
N
7
Vânt variabil Vânt from SV

astăzi
High -- | Low -- °F
--% Chance of Precip.
Ieri
High -- | Low -- °F
Precip. -- inch
7:46 AM 5:52 PM
Lună în creştere, 85% visible
Presiunea 30.50 inch
Vizibilitatea 9.0 mile
Nori Few 3200 ft
Vânt rece 11 °F
Punctul de rouă 12 °F
Umiditatea 71%
Precipitaţii 0.00 inch
Adâncimea zăpezii Not available.
UV 0 out of 12
Pollen .10 out of 12
Calitatea aerului Not available.
Flu Activity Not available.
METAR KSGH 302256Z AUTO 22006KT 9SM FEW032 M07/M11 A3045 RMK AO2 T10661111 SLP326

More Conditions Fewer Conditions

Presiunea 30.50 inch
Vizibilitatea 9.0 mile
Nori Few 3200 ft
Vânt rece 11 °F
Punctul de rouă 12 °F
Umiditatea 71%
Precipitaţii 0.00 inch
Adâncimea zăpezii Not available.
UV 0 out of 12
Pollen .10 out of 12
Calitatea aerului Not available.
Flu Activity Not available.
METAR KSGH 302256Z AUTO 22006KT 9SM FEW032 M07/M11 A3045 RMK AO2 T10661111 SLP326

More Conditions Fewer Conditions

10-Day Weather Forecast

Almanac

Astronomie

Jan. 30, 2015 Răsărit Apus
Timpul Actual
Crepusculul Civil
Crepusculul nautic
Răsărit Astronomic
Luna
Durata zilei lumină
Lungimea zilei
Tomorrow will be .
, % of the Moon is Illuminated

Extremele de azi

State Highs State Lows

Community

WunderPhotos

Upload Photos

1,791,918 photos uploaded!

WunderBlogs® & News

Nearby

Calitatea aerului

  Calitatea aerului Index de calitate a aerului Poluat
Not available.

Adâncimea zapezii

Station Depth Elevation

Earthquake Activity

Oraş Distance Mag. Time & Date
Minimum magnitude displayed is 2.5.

Coastal Water Temperatures

Locul Temperatura

Nearby Weather Stations